Time;durP1;ratioP1;P1;durP2;ratioP2;P2;SDS_P1;SDS_P2;PMS_P1;PMS_P2;Temp;Humidity;BMP_temperature;BMP_pressure;BME280_temperature;BME280_humidity;BME280_pressure;Samples;Min_cycle;Max_cycle;Signal;HPM_P1;HPM_P2
2023/03/08 00:00:19;;;;;;;1.33;1.00;;;;;;;9.46;79.57;98293.75;5114087;28;20225;-62
2023/03/08 00:02:46;;;;;;;0.90;0.90;;;;;;;9.53;78.67;98295.69;5113919;28;20259;-62
2023/03/08 00:05:13;;;;;;;2.93;1.00;;;;;;;9.44;79.37;98290.50;5114204;28;20197;-62
2023/03/08 00:07:40;;;;;;;1.17;0.90;;;;;;;9.22;80.11;98287.13;5113866;28;20713;-62
2023/03/08 00:10:10;;;;;;;2.00;0.87;;;;;;;9.59;78.97;98289.28;5113912;28;20201;-62
2023/03/08 00:12:37;;;;;;;1.60;1.20;;;;;;;9.68;78.00;98287.72;5114263;28;20220;-62
2023/03/08 00:15:04;;;;;;;1.70;1.17;;;;;;;9.73;77.52;98285.59;5114131;28;20382;-59
2023/03/08 00:17:31;;;;;;;1.30;0.87;;;;;;;9.53;78.13;98289.78;5113648;28;20221;-59
2023/03/08 00:19:58;;;;;;;1.67;0.93;;;;;;;9.21;80.12;98295.69;5113596;28;20936;-59
2023/03/08 00:22:24;;;;;;;1.10;1.00;;;;;;;9.09;80.54;98299.22;5113512;28;20220;-59
2023/03/08 00:24:53;;;;;;;2.53;1.40;;;;;;;9.07;80.46;98288.31;5113768;28;20665;-62
2023/03/08 00:27:21;;;;;;;0.73;0.73;;;;;;;9.14;80.40;98289.47;5113838;28;20220;-62
2023/03/08 00:29:48;;;;;;;1.97;1.27;;;;;;;9.22;79.80;98287.13;5113513;28;20209;-62
2023/03/08 00:32:15;;;;;;;4.33;1.50;;;;;;;8.95;81.06;98289.31;5113283;28;20216;-62
2023/03/08 00:34:45;;;;;;;1.47;0.97;;;;;;;8.77;82.01;98287.25;5113461;27;20201;-62
2023/03/08 00:37:12;;;;;;;0.80;0.70;;;;;;;8.65;82.61;98282.31;5113716;28;20220;-62
2023/03/08 00:39:38;;;;;;;0.97;0.87;;;;;;;8.71;82.41;98284.38;5113415;28;20201;-59
2023/03/08 00:42:05;;;;;;;2.43;1.53;;;;;;;8.53;84.06;98289.16;5113669;28;20580;-59
2023/03/08 00:44:34;;;;;;;1.27;0.70;;;;;;;8.39;84.80;98282.56;5113156;28;20208;-62
2023/03/08 00:47:00;;;;;;;1.10;0.97;;;;;;;8.31;85.58;98279.75;5113046;28;20203;-62
2023/03/08 00:49:27;;;;;;;6.50;1.50;;;;;;;8.22;86.28;98283.81;5113242;28;20209;-59
2023/03/08 00:51:54;;;;;;;2.30;1.57;;;;;;;8.28;86.05;98278.25;5112702;28;20209;-59
2023/03/08 00:54:21;;;;;;;3.17;1.70;;;;;;;8.30;87.15;98278.94;5113164;28;20205;-59
2023/03/08 00:56:48;;;;;;;0.90;0.83;;;;;;;8.42;85.67;98271.34;5113198;28;20212;-59
2023/03/08 00:59:15;;;;;;;1.03;0.97;;;;;;;8.43;85.35;98278.03;5113046;28;20204;-62
2023/03/08 01:01:43;;;;;;;2.60;1.07;;;;;;;8.57;84.62;98270.16;5113186;28;20236;-62
2023/03/08 01:04:10;;;;;;;1.17;1.00;;;;;;;8.66;84.24;98274.53;5113097;28;20201;-62
2023/03/08 01:06:37;;;;;;;1.40;1.23;;;;;;;8.79;82.82;98270.13;5113052;28;20204;-62
2023/03/08 01:09:03;;;;;;;3.17;1.00;;;;;;;8.77;83.27;98271.16;5112587;28;20217;-62
2023/03/08 01:11:32;;;;;;;2.03;0.97;;;;;;;8.75;82.82;98267.91;5112824;28;20215;-59
2023/03/08 01:13:59;;;;;;;1.40;0.97;;;;;;;8.72;83.02;98263.84;5112861;28;20355;-59
2023/03/08 01:16:28;;;;;;;0.83;0.77;;;;;;;8.74;83.44;98264.56;5112703;28;20193;-59
2023/03/08 01:18:56;;;;;;;2.57;1.13;;;;;;;8.75;83.30;98263.63;5112491;28;20229;-59
2023/03/08 01:21:24;;;;;;;2.40;1.67;;;;;;;8.70;83.89;98270.84;5112783;28;20586;-62
2023/03/08 01:23:51;;;;;;;2.60;1.57;;;;;;;8.76;83.21;98262.72;5112511;28;20217;-59
2023/03/08 01:26:20;;;;;;;1.00;0.90;;;;;;;8.80;82.74;98266.63;5112521;28;20193;-62
2023/03/08 01:28:47;;;;;;;0.87;0.87;;;;;;;8.80;83.50;98265.81;5112405;28;20251;-62
2023/03/08 01:31:16;;;;;;;4.70;0.87;;;;;;;8.83;83.09;98263.84;5112373;28;20197;-59
2023/03/08 01:33:44;;;;;;;3.40;1.20;;;;;;;8.81;83.52;98273.38;5112357;28;20691;-59
2023/03/08 01:36:14;;;;;;;0.80;0.80;;;;;;;8.81;83.18;98268.25;5112252;28;20197;-62
2023/03/08 01:38:42;;;;;;;0.90;0.87;;;;;;;8.94;81.60;98274.94;5112300;28;20213;-62
2023/03/08 01:41:14;;;;;;;1.77;0.93;;;;;;;8.99;81.27;98270.31;5112003;28;20233;-59
2023/03/08 01:43:41;;;;;;;2.20;0.93;;;;;;;9.06;79.98;98272.22;5112146;28;20221;-59
2023/03/08 01:46:17;;;;;;;1.57;0.90;;;;;;;9.12;79.03;98273.47;5112201;28;20189;-62
2023/03/08 01:48:49;;;;;;;1.27;1.03;;;;;;;9.24;78.28;98267.41;5112250;28;20224;-62
2023/03/08 01:51:24;;;;;;;1.10;0.80;;;;;;;9.24;77.83;98269.94;5111981;28;20201;-59
2023/03/08 01:53:52;;;;;;;0.57;0.57;;;;;;;9.28;77.30;98268.78;5111826;28;20213;-59
2023/03/08 01:56:20;;;;;;;1.03;0.93;;;;;;;9.27;76.24;98264.59;5111705;28;20583;-59
2023/03/08 01:58:50;;;;;;;2.10;1.00;;;;;;;9.27;76.75;98264.59;5111733;28;20219;-62
2023/03/08 02:01:19;;;;;;;1.30;1.10;;;;;;;9.30;76.26;98266.91;5111837;28;20229;-62
2023/03/08 02:03:47;;;;;;;0.70;0.67;;;;;;;9.20;76.25;98258.38;5111581;28;20226;-59
2023/03/08 02:06:15;;;;;;;0.93;0.90;;;;;;;9.13;76.38;98259.78;5111312;28;20250;-59
2023/03/08 02:08:44;;;;;;;1.10;0.63;;;;;;;9.10;76.43;98260.03;5111540;28;20213;-62
2023/03/08 02:11:13;;;;;;;0.70;0.60;;;;;;;9.00;76.49;98259.16;5111551;28;20661;-62
2023/03/08 02:13:41;;;;;;;1.20;0.80;;;;;;;8.99;76.79;98267.75;5111450;28;20224;-62
2023/03/08 02:16:12;;;;;;;1.10;0.87;;;;;;;8.87;76.87;98261.84;5111467;28;20205;-62
2023/03/08 02:18:50;;;;;;;1.57;0.93;;;;;;;8.83;77.16;98266.38;5111500;28;20804;-62
2023/03/08 02:21:17;;;;;;;2.07;0.80;;;;;;;8.78;77.52;98267.66;5110748;28;20228;-62
2023/03/08 02:23:45;;;;;;;1.93;1.23;;;;;;;8.75;77.91;98267.91;5111118;28;20217;-62
2023/03/08 02:26:12;;;;;;;1.03;0.83;;;;;;;8.66;78.36;98271.19;5111307;28;20197;-62
2023/03/08 02:28:39;;;;;;;1.23;1.13;;;;;;;8.47;79.42;98274.34;5111610;28;20217;-61
2023/03/08 02:31:06;;;;;;;1.37;0.70;;;;;;;8.45;79.88;98271.09;5111010;28;20204;-62
2023/03/08 02:33:33;;;;;;;0.70;0.70;;;;;;;8.44;79.56;98265.19;5111067;28;20383;-59
2023/03/08 02:36:01;;;;;;;0.70;0.60;;;;;;;8.36;80.47;98273.38;5110998;28;20700;-59
2023/03/08 02:38:28;;;;;;;0.73;0.73;;;;;;;8.33;80.54;98276.16;5110820;28;20217;-59
2023/03/08 02:40:57;;;;;;;0.53;0.50;;;;;;;8.31;80.63;98274.66;5110910;28;20240;-59
2023/03/08 02:43:24;;;;;;;1.70;1.10;;;;;;;8.28;79.60;98280.78;5110781;28;20217;-59
2023/03/08 02:45:51;;;;;;;1.33;0.90;;;;;;;8.23;80.25;98282.91;5110802;28;20478;-59
2023/03/08 02:48:19;;;;;;;0.93;0.80;;;;;;;8.27;80.45;98281.72;5110742;27;20209;-59
2023/03/08 02:50:46;;;;;;;0.60;0.53;;;;;;;8.21;80.88;98282.19;5110833;28;20204;-59
2023/03/08 02:53:13;;;;;;;1.60;1.00;;;;;;;8.23;80.95;98287.16;5110933;28;20228;-59
2023/03/08 02:55:39;;;;;;;0.80;0.80;;;;;;;8.19;81.03;98286.59;5110662;28;20194;-62
2023/03/08 02:58:09;;;;;;;1.13;0.77;;;;;;;8.18;81.31;98289.25;5110513;27;20213;-62
2023/03/08 03:00:36;;;;;;;2.60;0.77;;;;;;;8.16;81.62;98286.81;5110468;28;20328;-62
2023/03/08 03:03:03;;;;;;;2.03;1.00;;;;;;;8.09;81.61;98285.66;5110400;28;20213;-62
2023/03/08 03:05:30;;;;;;;0.43;0.43;;;;;;;8.16;80.98;98281.72;5110285;28;20193;-59
2023/03/08 03:07:57;;;;;;;1.50;1.10;;;;;;;8.08;81.09;98291.66;5110798;28;20564;-59
2023/03/08 03:10:25;;;;;;;0.50;0.50;;;;;;;8.13;80.83;98294.69;5110712;28;20189;-62
2023/03/08 03:12:52;;;;;;;0.80;0.77;;;;;;;8.11;81.33;98294.78;5110156;28;20262;-62
2023/03/08 03:15:20;;;;;;;0.97;0.60;;;;;;;8.16;81.05;98302.09;5110481;28;20189;-63
2023/03/08 03:17:47;;;;;;;1.03;0.70;;;;;;;8.13;81.50;98297.22;5110098;28;20229;-62
2023/03/08 03:20:14;;;;;;;0.60;0.60;;;;;;;8.13;81.14;98294.69;5110153;28;20204;-62
2023/03/08 03:22:41;;;;;;;0.50;0.50;;;;;;;8.16;81.40;98294.44;5110318;28;20785;-62
2023/03/08 03:25:09;;;;;;;1.47;0.50;;;;;;;8.22;80.66;98309.25;5110404;28;20193;-59
2023/03/08 03:27:36;;;;;;;1.07;0.73;;;;;;;8.24;80.54;98307.44;5110130;28;20405;-59
2023/03/08 03:30:03;;;;;;;0.67;0.67;;;;;;;8.34;79.78;98300.69;5109997;28;20197;-59
2023/03/08 03:32:31;;;;;;;0.40;0.40;;;;;;;8.41;79.70;98305.34;5109706;28;20232;-62
2023/03/08 03:34:58;;;;;;;1.20;0.87;;;;;;;8.42;79.86;98304.44;5109961;28;20205;-62
2023/03/08 03:37:25;;;;;;;1.00;0.90;;;;;;;8.37;79.69;98318.28;5109944;28;20217;-58
2023/03/08 03:39:51;;;;;;;1.30;0.63;;;;;;;8.32;79.74;98320.41;5109838;28;20201;-59
2023/03/08 03:42:18;;;;;;;0.77;0.67;;;;;;;8.31;79.67;98318.75;5109876;28;20236;-62
2023/03/08 03:44:45;;;;;;;0.80;0.60;;;;;;;8.29;79.37;98319.78;5109647;28;20193;-62
2023/03/08 03:47:12;;;;;;;0.33;0.33;;;;;;;8.26;79.24;98317.47;5110088;28;20693;-62
2023/03/08 03:49:40;;;;;;;1.47;0.67;;;;;;;8.24;79.34;98325.25;5110066;28;20555;-62
2023/03/08 03:52:07;;;;;;;0.40;0.40;;;;;;;8.27;78.49;98322.47;5109802;28;20224;-59
2023/03/08 03:54:34;;;;;;;0.60;0.60;;;;;;;8.25;78.67;98331.16;5109855;28;20193;-59
2023/03/08 03:57:01;;;;;;;0.83;0.60;;;;;;;8.32;78.79;98327.19;5109561;28;20197;-58
2023/03/08 03:59:28;;;;;;;0.70;0.70;;;;;;;8.31;78.65;98334.03;5110081;28;20205;-59
2023/03/08 04:01:55;;;;;;;0.73;0.67;;;;;;;8.27;78.99;98339.50;5109380;28;20224;-59
2023/03/08 04:04:22;;;;;;;0.87;0.60;;;;;;;8.21;78.83;98339.94;5109872;28;20201;-59
2023/03/08 04:06:50;;;;;;;1.70;0.60;;;;;;;8.25;78.60;98339.59;5109618;28;20224;-59
2023/03/08 04:09:18;;;;;;;0.50;0.47;;;;;;;8.15;79.00;98347.13;5109692;28;20193;-62
2023/03/08 04:11:46;;;;;;;1.10;0.50;;;;;;;8.00;79.70;98339.78;5109408;28;20673;-62
2023/03/08 04:14:12;;;;;;;0.50;0.50;;;;;;;7.93;80.39;98347.88;5109614;28;20581;-59
2023/03/08 04:16:40;;;;;;;1.43;0.50;;;;;;;7.91;80.07;98344.66;5109545;28;20669;-59
2023/03/08 04:19:10;;;;;;;1.13;0.83;;;;;;;7.90;80.41;98348.09;5109879;28;20224;-59
2023/03/08 04:21:37;;;;;;;0.70;0.67;;;;;;;7.90;80.58;98344.75;5109700;28;20229;-62
2023/03/08 04:24:06;;;;;;;2.77;0.60;;;;;;;7.91;80.46;98344.66;5109553;28;20228;-62
2023/03/08 04:26:33;;;;;;;0.50;0.33;;;;;;;7.89;80.55;98341.41;5109612;28;20220;-59
2023/03/08 04:29:04;;;;;;;0.60;0.60;;;;;;;7.84;81.00;98340.91;5109354;28;20213;-59
2023/03/08 04:31:31;;;;;;;0.70;0.70;;;;;;;7.74;81.29;98349.31;5109290;28;20725;-62
2023/03/08 04:33:58;;;;;;;1.67;1.00;;;;;;;7.70;81.20;98351.28;5109244;28;20217;-62
2023/03/08 04:36:25;;;;;;;0.97;0.90;;;;;;;7.68;81.48;98353.16;5109316;28;20212;-62
2023/03/08 04:38:52;;;;;;;0.47;0.47;;;;;;;7.62;81.60;98349.31;5109435;28;20218;-62
2023/03/08 04:41:20;;;;;;;0.87;0.70;;;;;;;7.55;82.42;98348.09;5109368;28;20222;-62
2023/03/08 04:43:49;;;;;;;0.57;0.57;;;;;;;7.53;82.42;98344.84;5110104;28;20838;-62
2023/03/08 04:46:17;;;;;;;1.17;0.87;;;;;;;7.44;83.05;98351.41;5113051;28;20217;-62
2023/03/08 04:48:44;;;;;;;1.67;0.90;;;;;;;7.39;83.55;98353.50;5113171;28;20217;-58
2023/03/08 04:51:13;;;;;;;0.37;0.30;;;;;;;7.40;83.39;98355.09;5112994;28;20593;-62
2023/03/08 04:53:40;;;;;;;1.07;1.00;;;;;;;7.38;83.55;98356.13;5112809;28;20617;-63
2023/03/08 04:56:08;;;;;;;0.43;0.40;;;;;;;7.41;83.14;98356.72;5113289;27;20569;-62
2023/03/08 04:58:37;;;;;;;0.90;0.70;;;;;;;7.41;83.52;98356.72;5112974;28;20748;-59
2023/03/08 05:01:12;;;;;;;0.40;0.40;;;;;;;7.42;83.57;98360.91;5113071;28;20193;-59
2023/03/08 05:03:39;;;;;;;0.63;0.50;;;;;;;7.41;84.02;98355.91;5113038;28;20212;-61
2023/03/08 05:06:06;;;;;;;0.70;0.60;;;;;;;7.41;84.07;98366.88;5112678;28;20189;-61
2023/03/08 05:08:33;;;;;;;1.37;0.53;;;;;;;7.38;84.54;98367.09;5112649;28;20224;-61
2023/03/08 05:11:01;;;;;;;1.83;1.23;;;;;;;7.45;84.36;98373.41;5112710;28;21014;-61
2023/03/08 05:13:30;;;;;;;2.00;0.60;;;;;;;7.56;84.29;98371.81;5112743;28;20626;-59
2023/03/08 05:15:59;;;;;;;1.30;1.10;;;;;;;7.68;84.17;98373.50;5112389;28;20694;-61
2023/03/08 05:18:26;;;;;;;0.53;0.53;;;;;;;7.79;84.64;98368.41;5112621;28;20232;-61
2023/03/08 05:20:55;;;;;;;0.80;0.80;;;;;;;8.08;82.73;98371.38;5112344;28;20197;-59
2023/03/08 05:23:22;;;;;;;1.50;0.80;;;;;;;8.27;82.05;98375.94;5112422;28;20217;-61
2023/03/08 05:25:52;;;;;;;0.70;0.70;;;;;;;8.53;81.36;98379.13;5112278;28;20212;-62
2023/03/08 05:28:19;;;;;;;1.10;1.10;;;;;;;8.80;79.96;98386.41;5112535;28;20214;-62
2023/03/08 05:30:46;;;;;;;0.77;0.63;;;;;;;9.00;79.30;98384.09;5112361;28;20217;-59
2023/03/08 05:33:15;;;;;;;2.50;0.70;;;;;;;9.17;77.45;98383.59;5112204;28;20706;-59
2023/03/08 05:35:42;;;;;;;0.90;0.70;;;;;;;9.35;77.04;98385.66;5112275;28;20194;-59
2023/03/08 05:38:09;;;;;;;0.83;0.83;;;;;;;9.55;76.63;98389.19;5112392;27;20225;-59
2023/03/08 05:40:37;;;;;;;0.70;0.53;;;;;;;9.58;75.02;98388.94;5112147;28;20197;-59
2023/03/08 05:43:04;;;;;;;1.27;0.77;;;;;;;9.59;75.06;98396.47;5112009;28;20256;-59
2023/03/08 05:45:31;;;;;;;1.13;0.80;;;;;;;9.67;74.32;98396.66;5111754;28;20720;-59
2023/03/08 05:47:58;;;;;;;0.63;0.63;;;;;;;9.90;73.88;98405.03;5111823;28;20225;-62
2023/03/08 05:50:26;;;;;;;0.77;0.70;;;;;;;10.12;72.08;98404.13;5111783;28;20204;-62
2023/03/08 05:52:53;;;;;;;1.73;0.60;;;;;;;10.15;72.13;98398.78;5111887;28;20577;-59
2023/03/08 05:55:20;;;;;;;1.10;1.00;;;;;;;10.29;72.11;98401.94;5110602;28;20212;-59
2023/03/08 05:57:47;;;;;;;1.60;0.90;;;;;;;10.43;72.04;98412.66;5111575;28;20213;-59
2023/03/08 06:00:15;;;;;;;0.80;0.80;;;;;;;10.63;71.63;98411.00;5111753;28;20190;-59
2023/03/08 06:02:42;;;;;;;0.67;0.60;;;;;;;10.72;69.99;98421.41;5111731;28;20630;-59
2023/03/08 06:05:09;;;;;;;1.90;1.13;;;;;;;10.78;68.90;98420.91;5111656;28;20194;-62
2023/03/08 06:07:38;;;;;;;1.10;0.93;;;;;;;10.94;69.16;98426.34;5112019;28;20225;-62
2023/03/08 06:10:06;;;;;;;0.80;0.80;;;;;;;10.90;66.75;98424.97;5111551;28;20201;-62
2023/03/08 06:12:32;;;;;;;1.03;0.80;;;;;;;10.88;68.37;98432.00;5111759;28;20224;-62
2023/03/08 06:14:59;;;;;;;3.13;0.90;;;;;;;10.91;67.63;98433.44;5111471;28;20196;-62
2023/03/08 06:17:26;;;;;;;2.30;0.90;;;;;;;10.99;66.50;98441.28;5111023;28;20228;-62
2023/03/08 06:19:53;;;;;;;1.80;1.07;;;;;;;11.10;66.73;98442.00;5111258;28;20196;-59
2023/03/08 06:22:20;;;;;;;1.30;1.07;;;;;;;11.07;67.20;98447.38;5111089;28;20240;-59
2023/03/08 06:24:48;;;;;;;1.50;0.97;;;;;;;11.26;69.17;98436.41;5111592;28;20193;-59
2023/03/08 06:27:16;;;;;;;1.03;0.70;;;;;;;11.57;68.05;98444.81;5111469;28;20789;-62
2023/03/08 06:29:43;;;;;;;0.90;0.80;;;;;;;11.98;66.79;98448.13;5111365;28;20201;-62
2023/03/08 06:32:11;;;;;;;1.03;0.93;;;;;;;12.38;64.45;98444.53;5110952;28;20221;-62
2023/03/08 06:34:38;;;;;;;2.80;1.20;;;;;;;13.01;64.38;98455.97;5111204;28;20193;-63
2023/03/08 06:37:04;;;;;;;1.20;1.00;;;;;;;13.51;62.37;98458.16;5111329;28;20212;-59
2023/03/08 06:39:33;;;;;;;1.53;1.30;;;;;;;13.88;61.10;98464.97;5111245;28;20193;-59
2023/03/08 06:42:01;;;;;;;2.27;1.10;;;;;;;14.12;58.91;98454.88;5110993;28;20241;-59
2023/03/08 06:44:29;;;;;;;0.77;0.77;;;;;;;14.48;57.05;98470.22;5111116;27;20202;-59
2023/03/08 06:46:56;;;;;;;2.27;1.40;;;;;;;14.55;56.94;98473.84;5110741;28;20193;-59
2023/03/08 06:49:23;;;;;;;1.20;1.10;;;;;;;14.90;58.10;98472.13;5110790;28;20208;-59
2023/03/08 06:51:50;;;;;;;1.97;1.43;;;;;;;15.32;56.34;98481.63;5110461;28;20207;-59
2023/03/08 06:54:17;;;;;;;1.67;1.30;;;;;;;14.74;54.85;98477.16;5110682;28;20194;-63
2023/03/08 06:56:44;;;;;;;1.80;1.23;;;;;;;14.94;55.71;98478.56;5110955;28;20205;-63
2023/03/08 06:59:13;;;;;;;1.40;1.20;;;;;;;15.07;55.29;98481.53;5110916;28;20201;-64
2023/03/08 07:01:40;;;;;;;1.50;1.13;;;;;;;15.71;55.08;98483.72;5110808;28;20193;-63
2023/03/08 07:04:07;;;;;;;2.13;1.23;;;;;;;15.70;51.89;98479.50;5110591;28;20610;-63
2023/03/08 07:06:34;;;;;;;1.70;1.13;;;;;;;16.40;53.81;98482.44;5110137;28;20190;-63
2023/03/08 07:09:01;;;;;;;1.90;1.20;;;;;;;16.97;52.14;98495.25;5110260;28;20211;-63
2023/03/08 07:11:29;;;;;;;1.17;1.00;;;;;;;17.56;51.90;98494.03;5110237;28;20569;-63
2023/03/08 07:13:58;;;;;;;2.40;1.60;;;;;;;18.07;51.12;98497.00;5110329;28;20271;-63
2023/03/08 07:16:26;;;;;;;2.67;1.23;;;;;;;18.22;49.30;98495.25;5110489;28;20200;-60
2023/03/08 07:18:55;;;;;;;2.07;1.20;;;;;;;18.47;47.88;98492.44;5110142;28;20233;-60
2023/03/08 07:21:22;;;;;;;1.80;1.10;;;;;;;18.54;47.24;98498.53;5109998;28;20195;-60
2023/03/08 07:23:51;;;;;;;2.13;1.30;;;;;;;17.28;47.48;98504.84;5109960;28;20638;-65
2023/03/08 07:26:18;;;;;;;1.67;1.37;;;;;;;17.38;47.30;98502.84;5110051;28;20202;-64
2023/03/08 07:28:48;;;;;;;1.70;1.10;;;;;;;18.06;47.32;98509.13;5110030;28;20214;-66
2023/03/08 07:31:15;;;;;;;3.03;1.10;;;;;;;18.56;47.54;98509.53;5110472;28;20211;-65
2023/03/08 07:33:43;;;;;;;3.30;1.30;;;;;;;19.16;46.53;98516.34;5109972;28;20217;-66
2023/03/08 07:36:10;;;;;;;2.13;1.17;;;;;;;18.90;45.93;98513.41;5110259;28;20201;-60
2023/03/08 07:38:37;;;;;;;2.37;1.30;;;;;;;19.23;46.06;98517.25;5109995;28;20702;-59
2023/03/08 07:41:04;;;;;;;2.10;1.20;;;;;;;19.67;45.75;98518.19;5110181;28;20204;-59
2023/03/08 07:43:31;;;;;;;2.20;1.17;;;;;;;20.09;44.31;98520.00;5109590;28;20644;-66
2023/03/08 07:46:01;;;;;;;2.43;1.40;;;;;;;19.55;43.79;98525.63;5109787;28;20689;-66
2023/03/08 07:48:28;;;;;;;1.53;1.00;;;;;;;19.26;44.31;98520.47;5110078;28;20238;-65
2023/03/08 07:51:01;;;;;;;1.67;1.27;;;;;;;19.37;46.18;98514.81;5109963;28;20189;-65
2023/03/08 07:53:29;;;;;;;1.73;1.40;;;;;;;19.66;43.94;98526.94;5109591;28;20733;-66
2023/03/08 07:55:58;;;;;;;2.30;1.30;;;;;;;19.47;45.44;98520.53;5110013;28;20584;-65
2023/03/08 07:58:25;;;;;;;3.47;1.20;;;;;;;19.34;42.90;98510.78;5109737;28;20226;-66
2023/03/08 08:00:52;;;;;;;1.27;1.00;;;;;;;19.34;43.66;98510.00;5109620;28;20200;-65
2023/03/08 08:03:19;;;;;;;1.40;1.10;;;;;;;19.17;43.44;98512.81;5109808;28;20670;-66
2023/03/08 08:05:46;;;;;;;1.20;1.10;;;;;;;19.83;43.68;98515.38;5109543;28;20232;-66
2023/03/08 08:08:14;;;;;;;1.30;1.17;;;;;;;19.49;43.08;98521.16;5110105;28;20228;-66
2023/03/08 08:10:41;;;;;;;2.50;1.20;;;;;;;18.54;43.11;98525.22;5109887;28;20212;-65
2023/03/08 08:13:08;;;;;;;1.63;1.00;;;;;;;18.22;43.79;98531.47;5109794;28;20217;-60
2023/03/08 08:15:35;;;;;;;3.30;1.20;;;;;;;18.47;44.56;98533.84;5109630;28;20577;-60
2023/03/08 08:18:03;;;;;;;1.17;1.00;;;;;;;18.18;43.12;98535.41;5109643;28;20224;-60
2023/03/08 08:20:29;;;;;;;1.47;1.00;;;;;;;17.84;44.11;98534.00;5113151;28;20694;-59
2023/03/08 08:22:56;;;;;;;2.60;1.10;;;;;;;18.58;43.45;98528.25;5113552;28;20233;-66
2023/03/08 08:25:25;;;;;;;2.63;1.27;;;;;;;18.27;42.44;98529.19;5113438;28;20553;-65
2023/03/08 08:27:51;;;;;;;2.10;1.27;;;;;;;18.28;41.90;98535.94;5113656;28;20216;-66
2023/03/08 08:30:19;;;;;;;2.23;0.87;;;;;;;18.47;43.06;98533.84;5113515;28;20192;-60
2023/03/08 08:32:45;;;;;;;2.23;1.17;;;;;;;17.47;43.53;98531.25;5113511;28;20617;-59
2023/03/08 08:35:12;;;;;;;2.63;0.90;;;;;;;18.20;43.61;98538.59;5113432;28;20707;-59
2023/03/08 08:37:39;;;;;;;1.17;1.00;;;;;;;18.04;42.31;98523.22;5113555;28;20227;-66
2023/03/08 08:40:09;;;;;;;2.90;0.90;;;;;;;18.01;44.52;98526.13;5113466;28;20209;-65
2023/03/08 08:42:37;;;;;;;1.40;0.97;;;;;;;18.29;42.89;98521.22;5113101;28;20327;-66
2023/03/08 08:45:05;;;;;;;1.13;0.83;;;;;;;18.95;42.88;98516.28;5113507;28;20201;-65
2023/03/08 08:47:31;;;;;;;1.00;0.90;;;;;;;19.37;42.42;98528.59;5112877;28;20218;-66
2023/03/08 08:49:58;;;;;;;1.47;1.00;;;;;;;18.95;41.41;98531.81;5113137;28;20201;-66
2023/03/08 08:52:25;;;;;;;1.83;1.20;;;;;;;18.43;42.90;98541.16;5113007;28;20224;-59
2023/03/08 08:54:52;;;;;;;1.30;1.13;;;;;;;18.62;42.60;98542.47;5112990;28;20382;-60
2023/03/08 08:57:19;;;;;;;1.20;1.10;;;;;;;18.27;43.96;98542.13;5112639;28;20214;-59
2023/03/08 08:59:48;;;;;;;1.67;1.10;;;;;;;18.82;44.68;98542.00;5113017;28;20197;-60
2023/03/08 09:02:15;;;;;;;1.23;1.00;;;;;;;18.75;43.26;98532.34;5112875;28;20680;-60
2023/03/08 09:04:41;;;;;;;1.83;1.13;;;;;;;18.95;42.52;98524.84;5112953;28;20207;-59
2023/03/08 09:07:08;;;;;;;1.80;1.10;;;;;;;19.30;42.93;98526.91;5112679;28;20218;-66
2023/03/08 09:09:35;;;;;;;1.17;0.90;;;;;;;19.47;43.37;98530.91;5112880;28;20205;-66
2023/03/08 09:12:02;;;;;;;1.37;1.10;;;;;;;19.55;43.34;98541.19;5112587;28;20213;-66
2023/03/08 09:14:29;;;;;;;1.10;1.00;;;;;;;19.52;41.93;98546.72;5112760;28;20198;-60
2023/03/08 09:16:57;;;;;;;1.00;0.97;;;;;;;19.03;43.59;98536.13;5112632;28;20212;-59
2023/03/08 09:19:24;;;;;;;1.83;1.40;;;;;;;19.17;44.11;98530.94;5112587;28;20201;-59
2023/03/08 09:21:51;;;;;;;3.67;1.33;;;;;;;19.95;42.48;98539.03;5112216;28;20195;-59
2023/03/08 09:24:18;;;;;;;2.03;1.40;;;;;;;20.42;43.37;98535.09;5112413;28;20235;-60
2023/03/08 09:26:44;;;;;;;1.37;1.10;;;;;;;21.05;42.56;98534.31;5112568;28;20207;-60
2023/03/08 09:29:12;;;;;;;1.90;1.30;;;;;;;20.96;40.93;98531.06;5112452;28;20214;-66
2023/03/08 09:31:39;;;;;;;1.73;1.10;;;;;;;19.50;41.99;98535.72;5112247;28;20204;-65
2023/03/08 09:34:08;;;;;;;1.03;0.93;;;;;;;19.23;42.49;98534.59;5112338;28;20224;-66
2023/03/08 09:36:36;;;;;;;2.40;1.10;;;;;;;18.22;42.80;98536.66;5112423;28;20704;-65
2023/03/08 09:39:04;;;;;;;1.60;1.10;;;;;;;17.50;41.38;98542.03;5112080;28;20218;-65
2023/03/08 09:41:49;;;;;;;1.73;0.80;;;;;;;17.03;41.94;98534.31;5112153;28;20204;-65
2023/03/08 09:44:42;;;;;;;1.50;0.90;;;;;;;16.73;42.14;98534.81;5112199;28;20285;-66
2023/03/08 09:47:16;;;;;;;1.47;1.10;;;;;;;16.96;43.30;98534.97;5111984;28;20266;-59
2023/03/08 09:49:49;;;;;;;1.37;0.97;;;;;;;16.81;42.73;98541.75;5112107;28;20192;-59
2023/03/08 09:52:22;;;;;;;1.20;0.83;;;;;;;16.43;42.91;98544.03;5112063;28;20736;-59
2023/03/08 09:54:51;;;;;;;1.50;1.00;;;;;;;16.88;43.34;98536.78;5112223;28;20200;-65
2023/03/08 09:57:23;;;;;;;1.17;1.00;;;;;;;16.87;43.82;98530.81;5112022;28;20210;-65
2023/03/08 09:59:54;;;;;;;0.87;0.77;;;;;;;16.83;43.05;98534.66;5111861;28;20183;-65
2023/03/08 10:02:34;;;;;;;1.40;1.00;;;;;;;17.10;43.64;98524.91;5111728;28;20225;-60
2023/03/08 10:05:08;;;;;;;1.00;0.80;;;;;;;16.88;43.62;98527.25;5111916;28;20580;-59
2023/03/08 10:07:48;;;;;;;1.10;1.00;;;;;;;16.93;44.06;98539.69;5111765;28;20216;-59
2023/03/08 10:10:36;;;;;;;0.80;0.80;;;;;;;17.32;43.48;98533.72;5112023;28;20190;-66
2023/03/08 10:13:18;;;;;;;2.87;1.20;;;;;;;17.56;42.56;98530.22;5111380;28;20440;-65
2023/03/08 10:15:51;;;;;;;1.27;0.97;;;;;;;18.38;43.71;98525.34;5111736;28;20206;-60
2023/03/08 10:18:29;;;;;;;0.93;0.80;;;;;;;18.46;41.66;98527.06;5111364;28;20233;-59
2023/03/08 10:20:59;;;;;;;1.70;1.10;;;;;;;19.51;40.94;98526.94;5111264;28;20192;-59
2023/03/08 10:23:30;;;;;;;1.13;1.03;;;;;;;19.92;40.01;98518.63;5111260;28;20613;-59
2023/03/08 10:25:57;;;;;;;1.50;0.90;;;;;;;20.05;39.06;98513.59;5111507;28;20214;-59
2023/03/08 10:28:26;;;;;;;3.17;1.13;;;;;;;20.31;39.76;98518.22;5111423;28;20219;-60
2023/03/08 10:30:57;;;;;;;1.23;1.03;;;;;;;20.80;37.83;98506.22;5111108;28;20209;-60
2023/03/08 10:33:25;;;;;;;1.90;0.97;;;;;;;20.21;37.49;98496.16;5111125;28;20708;-66
2023/03/08 10:36:00;;;;;;;1.00;0.90;;;;;;;19.81;37.76;98503.56;5111099;28;20234;-66
2023/03/08 10:38:29;;;;;;;1.00;0.90;;;;;;;20.08;39.01;98489.88;5111158;28;20216;-66
2023/03/08 10:41:01;;;;;;;1.47;1.10;;;;;;;19.74;38.16;98489.72;5110844;28;20196;-66
2023/03/08 10:43:30;;;;;;;1.30;0.87;;;;;;;20.09;38.01;98493.25;5110550;28;20231;-60
2023/03/08 10:46:03;;;;;;;1.33;0.97;;;;;;;20.60;38.06;98489.69;5110857;28;20215;-60
2023/03/08 10:48:30;;;;;;;1.17;1.00;;;;;;;20.62;37.32;98493.69;5110845;27;20235;-60
2023/03/08 10:51:04;;;;;;;0.90;0.80;;;;;;;21.09;35.33;98489.56;5110809;28;20602;-66
2023/03/08 10:53:32;;;;;;;1.00;0.90;;;;;;;20.52;35.16;98477.63;5110755;28;20228;-60
2023/03/08 10:56:01;;;;;;;1.30;1.00;;;;;;;21.41;36.04;98480.31;5110424;28;20193;-60
2023/03/08 10:58:34;;;;;;;2.47;1.17;;;;;;;21.59;35.72;98477.16;5110654;28;20232;-60
2023/03/08 11:01:05;;;;;;;1.83;1.03;;;;;;;21.57;36.43;98470.56;5110486;28;20262;-60
2023/03/08 11:03:32;;;;;;;1.20;0.87;;;;;;;21.50;35.21;98467.13;5110522;28;20243;-66
2023/03/08 11:06:03;;;;;;;1.20;1.00;;;;;;;21.58;35.58;98464.34;5110535;28;20197;-66
2023/03/08 11:08:32;;;;;;;1.07;0.93;;;;;;;21.84;34.91;98451.38;5110634;28;20289;-66
2023/03/08 11:11:04;;;;;;;0.90;0.80;;;;;;;21.55;35.47;98455.13;5110445;28;20658;-66
2023/03/08 11:13:34;;;;;;;0.70;0.70;;;;;;;22.38;36.69;98463.44;5110588;28;20232;-61
2023/03/08 11:16:08;;;;;;;1.17;0.93;;;;;;;22.37;34.29;98456.63;5110363;28;20665;-60
2023/03/08 11:18:47;;;;;;;2.42;1.10;;;;;;;22.59;35.23;98449.38;5110245;28;20231;-60
2023/03/08 11:21:23;;;;;;;1.00;0.90;;;;;;;22.76;33.71;98449.72;5110357;28;20193;-60
2023/03/08 11:24:00;;;;;;;0.98;0.88;;;;;;;22.43;32.28;98438.56;5110186;28;20611;-60
2023/03/08 11:26:37;;;;;;;1.48;0.90;;;;;;;20.90;32.67;98439.09;5110382;28;20197;-60
2023/03/08 11:29:17;;;;;;;1.40;1.23;;;;;;;20.86;33.80;98432.69;5110133;28;20221;-60
2023/03/08 11:31:53;;;;;;;1.33;0.82;;;;;;;21.74;34.42;98430.16;5110285;28;20644;-60
2023/03/08 11:34:38;;;;;;;1.47;1.00;;;;;;;22.63;33.98;98426.34;5110183;27;20697;-60
2023/03/08 11:37:15;;;;;;;2.35;1.40;;;;;;;23.11;31.97;98425.97;5109804;28;20222;-61
2023/03/08 11:39:46;;;;;;;1.15;0.93;;;;;;;23.17;32.88;98424.34;5110106;28;20208;-60
2023/03/08 11:42:25;;;;;;;2.00;0.98;;;;;;;22.76;30.98;98428.09;5110020;28;20254;-66